Time;durP1;ratioP1;P1;durP2;ratioP2;P2;SDS_P1;SDS_P2;PMS_P1;PMS_P2;Temp;Humidity;BMP_temperature;BMP_pressure;BME280_temperature;BME280_humidity;BME280_pressure;Samples;Min_cycle;Max_cycle;Signal;HPM_P1;HPM_P2
2021/11/15 00:00:22;;;;;;;4.25;3.10;;;0.20;99.90;;;;;;4987040;28;20070;-64
2021/11/15 00:02:49;;;;;;;3.75;3.33;;;0.30;99.90;;;;;;4984085;28;20129;-64
2021/11/15 00:05:16;;;;;;;4.32;3.47;;;0.30;99.90;;;;;;4983599;28;20038;-65
2021/11/15 00:07:43;;;;;;;8.23;4.18;;;0.40;99.90;;;;;;4984139;28;20450;-65
2021/11/15 00:10:15;;;;;;;4.30;3.88;;;0.40;99.90;;;;;;4984026;28;20089;-63
2021/11/15 00:12:52;;;;;;;2.95;2.53;;;0.50;99.90;;;;;;4981247;28;20108;-63
2021/11/15 00:15:20;;;;;;;6.50;3.60;;;0.50;99.90;;;;;;4977455;28;20050;-63
2021/11/15 00:17:48;;;;;;;5.50;3.67;;;0.60;99.90;;;;;;4982718;28;20118;-65
2021/11/15 00:20:16;;;;;;;6.07;2.83;;;0.60;99.90;;;;;;4985302;28;20080;-68
2021/11/15 00:22:44;;;;;;;7.30;4.70;;;0.70;99.90;;;;;;4984667;28;20046;-64
2021/11/15 00:25:12;;;;;;;5.63;3.50;;;0.70;99.90;;;;;;4983014;28;20073;-64
2021/11/15 00:27:39;;;;;;;5.00;3.70;;;0.70;99.90;;;;;;4981382;28;20747;-67
2021/11/15 00:30:08;;;;;;;5.10;3.60;;;0.70;99.90;;;;;;4984433;28;20113;-66
2021/11/15 00:32:36;;;;;;;5.55;4.38;;;0.80;99.90;;;;;;4974475;28;20066;-64
2021/11/15 00:35:05;;;;;;;8.60;4.03;;;0.70;99.90;;;;;;4985617;28;20097;-65
2021/11/15 00:37:32;;;;;;;5.70;3.78;;;0.80;99.90;;;;;;4978462;28;20039;-69
2021/11/15 00:39:59;;;;;;;7.68;4.25;;;0.80;99.90;;;;;;4978389;28;20074;-63
2021/11/15 00:42:26;;;;;;;10.75;3.78;;;0.80;99.90;;;;;;4984411;28;20046;-67
2021/11/15 00:44:53;;;;;;;8.73;3.92;;;0.80;99.90;;;;;;4984191;28;20042;-66
2021/11/15 00:47:20;;;;;;;7.60;4.18;;;0.80;99.90;;;;;;4980522;28;20070;-65
2021/11/15 00:49:48;;;;;;;5.63;3.78;;;0.80;99.90;;;;;;4983776;28;20038;-64
2021/11/15 00:52:16;;;;;;;4.75;3.92;;;0.80;99.90;;;;;;4983425;28;20050;-64
2021/11/15 00:54:43;;;;;;;4.63;3.45;;;0.80;99.90;;;;;;4977858;28;20062;-66
2021/11/15 00:57:10;;;;;;;5.50;3.47;;;0.90;99.90;;;;;;4980398;28;20050;-67
2021/11/15 00:59:37;;;;;;;4.57;3.92;;;0.90;99.90;;;;;;4973631;28;20353;-65
2021/11/15 01:02:04;;;;;;;4.90;3.28;;;0.90;99.90;;;;;;4979791;28;20153;-65
2021/11/15 01:04:32;;;;;;;4.85;3.47;;;0.90;99.90;;;;;;4978358;28;20039;-70
2021/11/15 01:07:00;;;;;;;3.40;3.08;;;0.90;99.90;;;;;;4989852;28;20042;-64
2021/11/15 01:09:27;;;;;;;5.07;3.65;;;0.90;99.90;;;;;;4979250;28;20046;-64
2021/11/15 01:11:56;;;;;;;4.93;4.43;;;1.00;99.90;;;;;;4976515;28;20493;-65
2021/11/15 01:14:24;;;;;;;5.70;4.03;;;1.00;99.90;;;;;;4982012;28;20064;-64
2021/11/15 01:16:51;;;;;;;7.55;3.50;;;1.00;99.90;;;;;;4985233;28;20046;-67
2021/11/15 01:19:18;;;;;;;5.20;4.10;;;1.00;99.90;;;;;;4981935;28;20130;-66
2021/11/15 01:21:46;;;;;;;5.35;4.10;;;1.00;99.90;;;;;;4981171;28;20113;-66
2021/11/15 01:24:13;;;;;;;6.28;3.70;;;1.00;99.90;;;;;;4984333;28;20084;-63
2021/11/15 01:26:39;;;;;;;5.60;3.80;;;1.00;99.90;;;;;;4982630;28;20082;-65
2021/11/15 01:29:09;;;;;;;5.50;3.88;;;1.00;99.90;;;;;;4984393;28;20137;-72
2021/11/15 01:31:36;;;;;;;5.07;3.75;;;1.00;99.90;;;;;;4984308;28;20074;-64
2021/11/15 01:34:03;;;;;;;4.88;3.55;;;1.00;99.90;;;;;;4985725;28;20130;-63
2021/11/15 01:36:30;;;;;;;4.38;3.42;;;1.10;99.90;;;;;;4981185;28;20408;-67
2021/11/15 01:38:57;;;;;;;5.22;4.00;;;1.00;99.90;;;;;;4985420;28;20070;-65
2021/11/15 01:41:24;;;;;;;5.13;3.20;;;1.00;99.90;;;;;;4978628;28;20116;-66
2021/11/15 01:43:51;;;;;;;4.45;3.60;;;1.00;99.90;;;;;;4981284;28;20521;-63
2021/11/15 01:46:19;;;;;;;4.20;3.50;;;1.00;99.90;;;;;;4981212;28;20809;-62
2021/11/15 01:48:46;;;;;;;4.35;3.33;;;1.10;99.90;;;;;;4980793;28;20046;-62
2021/11/15 01:51:13;;;;;;;8.40;3.72;;;1.00;99.90;;;;;;4983879;28;20660;-64
2021/11/15 01:53:40;;;;;;;10.68;6.03;;;1.10;99.90;;;;;;4983035;28;20073;-72
2021/11/15 01:56:07;;;;;;;3.50;2.92;;;1.10;99.90;;;;;;4980017;28;20124;-64
2021/11/15 01:58:35;;;;;;;5.40;3.28;;;1.00;99.90;;;;;;4977891;28;20153;-66
2021/11/15 02:01:03;;;;;;;4.85;3.45;;;1.10;99.90;;;;;;4980741;28;20165;-63
2021/11/15 02:03:32;;;;;;;4.57;4.00;;;1.10;99.90;;;;;;4983801;28;20052;-66
2021/11/15 02:06:00;;;;;;;4.53;3.67;;;1.00;99.90;;;;;;4983415;28;20133;-63
2021/11/15 02:08:27;;;;;;;4.78;4.18;;;1.00;99.90;;;;;;4983379;28;20125;-63
2021/11/15 02:10:55;;;;;;;4.45;3.50;;;1.00;99.90;;;;;;4983766;28;20066;-63
2021/11/15 02:13:24;;;;;;;4.13;3.70;;;1.00;99.90;;;;;;4982717;28;20093;-63
2021/11/15 02:15:51;;;;;;;6.97;4.30;;;1.00;99.90;;;;;;4987252;28;20062;-69
2021/11/15 02:18:20;;;;;;;5.32;3.85;;;1.00;99.90;;;;;;4986745;28;20070;-62
2021/11/15 02:20:53;;;;;;;5.40;3.85;;;1.00;99.90;;;;;;4980278;28;20197;-62
2021/11/15 02:23:23;;;;;;;6.63;4.32;;;0.90;99.90;;;;;;4985837;28;20061;-66
2021/11/15 02:25:52;;;;;;;6.95;4.57;;;1.00;99.90;;;;;;4986375;28;20804;-64
2021/11/15 02:28:27;;;;;;;7.40;3.80;;;1.00;99.90;;;;;;4987909;28;20102;-62
2021/11/15 02:30:55;;;;;;;4.85;4.00;;;0.90;99.90;;;;;;4987534;28;20050;-64
2021/11/15 02:33:22;;;;;;;4.82;3.92;;;0.90;99.90;;;;;;4987573;28;20074;-65
2021/11/15 02:35:49;;;;;;;8.43;4.90;;;0.90;99.90;;;;;;4977706;28;20129;-63
2021/11/15 02:38:16;;;;;;;6.68;5.47;;;0.90;99.90;;;;;;4983818;28;20074;-63
2021/11/15 02:40:43;;;;;;;7.95;4.25;;;0.90;99.90;;;;;;4984262;28;20034;-66
2021/11/15 02:43:10;;;;;;;6.45;4.40;;;0.90;99.90;;;;;;4996680;28;20137;-66
2021/11/15 02:45:37;;;;;;;7.65;4.65;;;0.80;99.90;;;;;;4983142;28;20070;-70
2021/11/15 02:48:05;;;;;;;5.63;4.05;;;0.80;99.90;;;;;;4979617;28;20043;-64
2021/11/15 02:50:33;;;;;;;4.97;4.45;;;0.80;99.90;;;;;;4978700;28;20042;-63
2021/11/15 02:53:07;;;;;;;5.43;3.95;;;0.80;99.90;;;;;;4978181;28;20050;-65
2021/11/15 02:55:35;;;;;;;6.07;4.90;;;0.80;99.90;;;;;;4986152;28;20108;-64
2021/11/15 02:58:05;;;;;;;5.75;4.50;;;0.70;99.90;;;;;;4984523;28;20126;-64
2021/11/15 03:00:48;;;;;;;5.22;4.53;;;0.70;99.90;;;;;;4986469;28;20081;-62
2021/11/15 03:03:16;;;;;;;5.78;4.85;;;0.70;99.90;;;;;;4997500;28;20178;-68
2021/11/15 03:05:50;;;;;;;5.15;4.65;;;0.70;99.90;;;;;;4978443;28;20047;-64
2021/11/15 03:08:18;;;;;;;6.60;4.40;;;0.70;99.90;;;;;;4982591;28;20452;-63
2021/11/15 03:10:47;;;;;;;12.18;4.32;;;0.70;99.90;;;;;;4978268;28;20050;-64
2021/11/15 03:13:17;;;;;;;7.82;4.80;;;0.80;99.90;;;;;;4983320;28;20074;-65
2021/11/15 03:15:47;;;;;;;6.88;5.03;;;0.80;99.90;;;;;;5000200;28;20125;-63
2021/11/15 03:18:21;;;;;;;5.45;4.57;;;0.80;99.90;;;;;;5014750;28;20058;-66
2021/11/15 03:20:53;;;;;;;4.78;4.07;;;0.80;99.90;;;;;;4981748;28;20706;-63
2021/11/15 03:23:24;;;;;;;7.50;5.03;;;0.70;99.90;;;;;;4985054;28;20113;-65
2021/11/15 03:25:52;;;;;;;6.35;4.07;;;0.70;99.90;;;;;;4974204;28;20129;-63
2021/11/15 03:28:22;;;;;;;6.65;4.50;;;0.70;99.90;;;;;;4985357;28;20599;-63
2021/11/15 03:30:54;;;;;;;5.43;4.35;;;0.70;99.90;;;;;;4981738;28;20057;-64
2021/11/15 03:33:22;;;;;;;5.28;4.65;;;0.70;99.90;;;;;;4985141;28;20169;-64
2021/11/15 03:35:49;;;;;;;5.97;4.38;;;0.80;99.90;;;;;;4984996;28;20038;-66
2021/11/15 03:38:17;;;;;;;6.57;4.82;;;0.70;99.90;;;;;;4982616;28;20396;-67
2021/11/15 03:40:44;;;;;;;7.55;4.63;;;0.70;99.90;;;;;;4977952;28;20085;-67
2021/11/15 03:43:12;;;;;;;5.93;3.88;;;0.70;99.90;;;;;;4983520;28;20058;-64
2021/11/15 03:45:40;;;;;;;11.43;4.93;;;0.60;99.90;;;;;;4984959;28;20042;-66
2021/11/15 03:48:10;;;;;;;5.53;4.75;;;0.70;99.90;;;;;;4984837;28;20043;-63
2021/11/15 03:50:37;;;;;;;5.23;3.60;;;0.70;99.90;;;;;;4982944;28;20184;-69
2021/11/15 03:53:07;;;;;;;8.38;5.78;;;0.60;99.90;;;;;;4976297;28;20292;-63
2021/11/15 03:55:34;;;;;;;6.15;5.53;;;0.60;99.90;;;;;;4985017;28;20070;-63
2021/11/15 03:58:02;;;;;;;9.10;6.35;;;0.60;99.90;;;;;;4976711;28;20093;-63
2021/11/15 04:00:31;;;;;;;9.07;6.30;;;0.70;99.90;;;;;;4981817;28;20165;-64
2021/11/15 04:03:04;;;;;;;8.13;6.05;;;0.60;99.90;;;;;;4982913;28;20057;-64
2021/11/15 04:05:36;;;;;;;8.98;6.15;;;0.70;99.90;;;;;;4976159;28;20094;-65
2021/11/15 04:08:06;;;;;;;7.43;5.82;;;0.70;99.90;;;;;;4983935;28;20046;-64
2021/11/15 04:10:40;;;;;;;9.07;7.07;;;0.70;99.90;;;;;;4998396;28;20054;-65
2021/11/15 04:13:31;;;;;;;10.00;6.53;;;0.70;99.90;;;;;;4983332;28;20042;-63
2021/11/15 04:16:00;;;;;;;;;;;0.70;99.90;;;;;;4986884;28;20050;-65
2021/11/15 04:18:31;;;;;;;7.22;6.15;;;0.70;99.90;;;;;;4984859;28;20284;-64
2021/11/15 04:20:59;;;;;;;8.88;5.72;;;0.70;99.90;;;;;;4975509;28;20047;-66
2021/11/15 04:23:26;;;;;;;8.15;5.72;;;0.70;99.90;;;;;;4987145;28;20515;-65
2021/11/15 04:25:53;;;;;;;7.20;6.00;;;0.70;99.90;;;;;;4983456;28;20559;-65
2021/11/15 04:28:20;;;;;;;6.50;5.32;;;0.70;99.90;;;;;;4986030;28;20128;-70
2021/11/15 04:30:48;;;;;;;6.63;5.05;;;0.80;99.90;;;;;;5007607;28;20047;-63
2021/11/15 04:33:16;;;;;;;7.97;6.28;;;0.70;99.90;;;;;;4980609;28;20471;-64
2021/11/15 04:35:43;;;;;;;8.48;5.80;;;0.70;99.90;;;;;;4999153;28;20097;-67
2021/11/15 04:38:11;;;;;;;8.52;5.50;;;0.80;99.90;;;;;;4985893;28;20654;-65
2021/11/15 04:40:38;;;;;;;8.15;6.05;;;0.80;99.90;;;;;;4975902;28;20046;-65
2021/11/15 04:43:05;;;;;;;7.63;6.10;;;0.80;99.90;;;;;;4979993;28;20073;-69
2021/11/15 04:45:32;;;;;;;7.53;6.05;;;0.80;99.90;;;;;;4986476;28;20047;-64
2021/11/15 04:47:59;;;;;;;8.13;6.30;;;0.70;99.90;;;;;;4984559;28;20120;-64
2021/11/15 04:50:27;;;;;;;9.55;6.20;;;0.80;99.90;;;;;;4985307;28;20365;-71
2021/11/15 04:52:54;;;;;;;7.60;6.15;;;0.80;99.90;;;;;;4982433;28;20067;-63
2021/11/15 04:55:23;;;;;;;8.52;6.22;;;0.70;99.90;;;;;;4976271;28;20047;-64
2021/11/15 04:57:51;;;;;;;13.15;7.20;;;0.70;99.90;;;;;;4998918;28;20050;-66
2021/11/15 05:00:23;;;;;;;7.30;6.45;;;0.80;99.90;;;;;;4986842;28;20145;-63
2021/11/15 05:02:51;;;;;;;11.00;7.05;;;0.70;99.90;;;;;;4983854;28;20042;-65
2021/11/15 05:05:19;;;;;;;9.43;5.72;;;0.80;99.90;;;;;;4982947;28;20141;-65
2021/11/15 05:07:48;;;;;;;8.82;6.65;;;0.70;99.90;;;;;;4982083;28;20070;-67
2021/11/15 05:10:15;;;;;;;7.57;6.65;;;0.70;99.90;;;;;;4981016;28;20081;-64
2021/11/15 05:12:42;;;;;;;9.05;5.95;;;0.70;99.90;;;;;;4972604;28;20062;-64
2021/11/15 05:15:12;;;;;;;11.40;6.35;;;0.70;99.90;;;;;;4984408;28;20459;-64
2021/11/15 05:17:39;;;;;;;8.50;5.75;;;0.70;99.90;;;;;;4984779;28;20050;-63
2021/11/15 05:20:08;;;;;;;13.13;6.47;;;0.60;99.90;;;;;;4983964;28;20070;-66
2021/11/15 05:22:37;;;;;;;9.93;6.70;;;0.60;99.90;;;;;;4978078;28;20053;-66
2021/11/15 05:25:06;;;;;;;7.22;6.45;;;0.60;99.90;;;;;;4979883;28;20096;-67
2021/11/15 05:27:34;;;;;;;9.43;6.50;;;0.60;99.90;;;;;;4983875;28;20042;-64
2021/11/15 05:30:06;;;;;;;9.95;7.65;;;0.60;99.90;;;;;;4978354;28;20125;-64
2021/11/15 05:32:33;;;;;;;8.02;6.53;;;0.70;99.90;;;;;;4983161;28;20042;-65
2021/11/15 05:35:00;;;;;;;9.95;6.70;;;0.70;99.90;;;;;;4973566;28;20085;-64
2021/11/15 05:37:28;;;;;;;10.73;6.65;;;0.60;99.90;;;;;;4979691;28;20050;-64
2021/11/15 05:39:55;;;;;;;7.00;5.60;;;0.60;99.90;;;;;;4983042;28;20149;-64
2021/11/15 05:42:22;;;;;;;8.90;6.90;;;0.60;99.90;;;;;;4984422;28;20038;-63
2021/11/15 05:44:49;;;;;;;9.82;7.97;;;0.50;99.90;;;;;;4983828;28;20088;-70
2021/11/15 05:47:16;;;;;;;10.55;6.45;;;0.60;99.90;;;;;;4988065;28;20070;-63
2021/11/15 05:49:43;;;;;;;8.75;7.85;;;0.50;99.90;;;;;;4987122;28;20126;-66
2021/11/15 05:52:10;;;;;;;9.13;6.38;;;0.50;99.90;;;;;;4986921;28;20428;-63
2021/11/15 05:54:37;;;;;;;10.23;6.63;;;0.50;99.90;;;;;;4983580;28;20054;-68
2021/11/15 05:57:05;;;;;;;8.90;6.63;;;0.50;99.90;;;;;;4987949;28;20061;-70
2021/11/15 05:59:31;;;;;;;7.18;5.50;;;0.40;99.90;;;;;;4987228;28;20548;-63
2021/11/15 06:01:58;;;;;;;9.20;6.13;;;0.40;99.90;;;;;;4988079;28;20084;-66
2021/11/15 06:04:25;;;;;;;10.93;6.15;;;0.40;99.90;;;;;;4981268;28;20531;-63
2021/11/15 06:06:52;;;;;;;9.23;5.70;;;0.40;99.90;;;;;;4984565;28;20058;-64
2021/11/15 06:09:19;;;;;;;7.80;5.80;;;0.40;99.90;;;;;;4983580;28;20074;-67
2021/11/15 06:11:46;;;;;;;7.30;6.00;;;0.40;99.90;;;;;;4982787;28;20170;-69
2021/11/15 06:14:13;;;;;;;7.85;6.22;;;0.40;99.90;;;;;;4987062;28;20124;-63
2021/11/15 06:16:40;;;;;;;7.82;4.85;;;0.40;99.90;;;;;;4984169;28;20050;-71
2021/11/15 06:19:07;;;;;;;10.13;5.80;;;0.40;99.90;;;;;;4984717;28;20081;-65
2021/11/15 06:21:34;;;;;;;8.80;6.32;;;0.40;99.90;;;;;;4980783;28;20043;-66
2021/11/15 06:24:02;;;;;;;8.25;5.55;;;0.40;99.90;;;;;;4985664;28;20130;-66
2021/11/15 06:26:30;;;;;;;10.38;6.20;;;0.40;99.90;;;;;;4982350;28;20376;-63
2021/11/15 06:28:57;;;;;;;8.25;5.60;;;0.30;99.90;;;;;;4983732;28;20081;-63
2021/11/15 06:31:24;;;;;;;8.07;5.53;;;0.30;99.90;;;;;;4983600;28;20073;-65
2021/11/15 06:33:52;;;;;;;7.78;5.43;;;0.30;99.90;;;;;;4984164;28;20093;-70
2021/11/15 06:36:22;;;;;;;9.60;6.90;;;0.30;99.90;;;;;;4986175;28;20100;-65
2021/11/15 06:38:54;;;;;;;7.97;6.43;;;0.30;99.90;;;;;;4987328;28;20474;-64
2021/11/15 06:41:22;;;;;;;10.10;6.15;;;0.30;99.90;;;;;;4984204;28;20137;-65
2021/11/15 06:43:50;;;;;;;6.50;5.60;;;0.30;99.90;;;;;;4985245;28;20408;-68
2021/11/15 06:46:17;;;;;;;11.40;7.00;;;0.30;99.90;;;;;;4983558;28;20205;-64
2021/11/15 06:48:44;;;;;;;9.00;6.45;;;0.30;99.90;;;;;;4986541;28;20046;-65
2021/11/15 06:51:31;;;;;;;10.80;6.45;;;0.30;99.90;;;;;;4984457;28;20053;-63
2021/11/15 06:53:58;;;;;;;11.70;6.82;;;0.20;99.90;;;;;;4987924;28;20089;-63
2021/11/15 06:56:25;;;;;;;9.65;6.75;;;0.20;99.90;;;;;;4983017;28;20060;-64
2021/11/15 06:58:52;;;;;;;8.65;6.97;;;0.30;99.90;;;;;;4984388;28;20125;-67
2021/11/15 07:01:19;;;;;;;9.45;6.30;;;0.30;99.90;;;;;;4982642;28;20097;-65
2021/11/15 07:03:47;;;;;;;8.07;6.47;;;0.30;99.90;;;;;;4986093;28;20039;-63
2021/11/15 07:06:14;;;;;;;15.95;7.70;;;0.30;99.90;;;;;;4985254;28;20121;-65
2021/11/15 07:08:47;;;;;;;8.15;6.57;;;0.30;99.90;;;;;;4985597;28;21140;-64
2021/11/15 07:11:14;;;;;;;11.32;7.70;;;0.30;99.90;;;;;;4983153;28;20148;-69
2021/11/15 07:13:41;;;;;;;18.08;9.10;;;0.30;99.90;;;;;;4987440;28;20098;-63
2021/11/15 07:16:08;;;;;;;12.82;9.60;;;0.30;99.90;;;;;;4984311;28;20145;-63
2021/11/15 07:18:35;;;;;;;8.65;6.55;;;0.30;99.90;;;;;;4985236;28;20133;-64
2021/11/15 07:21:03;;;;;;;12.98;7.60;;;0.30;99.90;;;;;;4990122;28;20054;-63
2021/11/15 07:23:30;;;;;;;9.98;7.85;;;0.30;99.90;;;;;;4985962;28;20105;-66
2021/11/15 07:25:57;;;;;;;12.38;8.52;;;0.30;99.90;;;;;;4982011;28;20046;-69
2021/11/15 07:28:26;;;;;;;10.27;8.20;;;0.20;99.90;;;;;;4984535;28;20451;-63
2021/11/15 07:30:56;;;;;;;12.85;8.15;;;0.20;99.90;;;;;;4983646;28;20070;-63
2021/11/15 07:33:25;;;;;;;9.48;7.28;;;0.20;99.90;;;;;;4983962;28;20030;-68
2021/11/15 07:35:53;;;;;;;10.63;7.68;;;0.30;99.90;;;;;;4985272;28;20653;-64
2021/11/15 07:38:21;;;;;;;10.85;8.35;;;0.30;99.90;;;;;;4985602;28;20161;-69
2021/11/15 07:40:50;;;;;;;10.70;8.23;;;0.30;99.90;;;;;;4997418;28;20057;-68
2021/11/15 07:43:17;;;;;;;11.80;8.13;;;0.30;99.90;;;;;;4984104;28;20199;-63
2021/11/15 07:45:44;;;;;;;11.30;7.60;;;0.30;99.90;;;;;;4985301;28;20047;-67
2021/11/15 07:48:11;;;;;;;11.93;9.02;;;0.40;99.90;;;;;;4984077;28;20465;-65
2021/11/15 07:50:38;;;;;;;11.32;8.98;;;0.40;99.90;;;;;;4982208;28;20137;-63
2021/11/15 07:53:06;;;;;;;14.43;9.02;;;0.40;99.90;;;;;;4985116;28;20034;-67
2021/11/15 07:55:33;;;;;;;11.98;8.38;;;0.40;99.90;;;;;;4981826;28;20096;-64
2021/11/15 07:58:04;;;;;;;11.23;8.75;;;0.50;99.90;;;;;;4984054;28;20058;-64
2021/11/15 08:00:31;;;;;;;13.30;9.32;;;0.50;99.90;;;;;;4982472;28;20394;-68
2021/11/15 08:02:59;;;;;;;16.33;9.43;;;0.50;99.90;;;;;;4983396;28;20054;-64
2021/11/15 08:05:26;;;;;;;9.68;7.38;;;0.60;99.90;;;;;;4982321;28;20064;-64
2021/11/15 08:07:53;;;;;;;9.50;7.80;;;0.70;99.90;;;;;;4983698;28;20192;-64
2021/11/15 08:10:21;;;;;;;9.02;7.68;;;0.80;99.90;;;;;;4981167;28;20069;-68
2021/11/15 08:12:51;;;;;;;9.05;7.00;;;0.90;99.90;;;;;;4981583;28;20128;-67
2021/11/15 08:15:19;;;;;;;15.00;8.60;;;0.90;99.90;;;;;;4983776;28;20123;-65
2021/11/15 08:17:50;;;;;;;11.55;6.97;;;1.10;99.90;;;;;;4982555;28;20047;-64
2021/11/15 08:20:23;;;;;;;7.68;5.18;;;1.10;99.90;;;;;;4983131;28;20050;-64
2021/11/15 08:22:55;;;;;;;8.98;6.97;;;1.20;99.90;;;;;;4984188;28;20084;-67
2021/11/15 08:25:49;;;;;;;9.40;7.00;;;1.30;99.90;;;;;;4978084;28;20051;-66
2021/11/15 08:28:16;;;;;;;7.38;6.55;;;1.30;99.90;;;;;;4980503;28;20062;-69
2021/11/15 08:30:43;;;;;;;10.50;6.80;;;1.40;99.90;;;;;;4982017;28;20042;-65
2021/11/15 08:33:12;;;;;;;11.75;7.78;;;1.50;99.90;;;;;;4986931;28;20452;-65
2021/11/15 08:35:39;;;;;;;10.65;6.88;;;1.50;99.90;;;;;;4982191;28;20073;-65
2021/11/15 08:38:15;;;;;;;11.93;7.65;;;1.60;99.90;;;;;;4983586;28;20178;-64
2021/11/15 08:40:44;;;;;;;11.75;7.18;;;1.70;99.90;;;;;;4977548;28;20068;-64
2021/11/15 08:43:14;;;;;;;12.23;7.03;;;1.70;99.90;;;;;;4980887;28;20451;-66
2021/11/15 08:45:41;;;;;;;10.60;8.57;;;1.80;99.90;;;;;;4982846;28;20054;-63
2021/11/15 08:48:09;;;;;;;7.63;5.22;;;1.90;99.90;;;;;;4982413;28;20190;-64
2021/11/15 08:50:36;;;;;;;9.57;5.90;;;1.90;99.90;;;;;;4981024;28;20046;-67
2021/11/15 08:53:04;;;;;;;8.50;6.75;;;2.00;99.90;;;;;;4986184;28;20101;-64
2021/11/15 08:55:32;;;;;;;8.38;6.70;;;2.10;99.90;;;;;;4981861;28;20085;-66
2021/11/15 08:58:00;;;;;;;8.73;5.78;;;2.20;99.90;;;;;;4979778;28;20120;-68
2021/11/15 09:00:30;;;;;;;9.73;7.25;;;2.20;99.90;;;;;;4984760;28;20472;-66
2021/11/15 09:02:57;;;;;;;;;;;2.30;99.90;;;;;;4981353;28;20121;-65
2021/11/15 09:05:25;;;;;;;10.85;7.20;;;2.40;99.90;;;;;;4985133;28;20024;-63
2021/11/15 09:07:52;;;;;;;9.55;7.07;;;2.40;99.90;;;;;;4982511;28;20196;-63
2021/11/15 09:10:20;;;;;;;8.73;7.13;;;2.50;99.90;;;;;;4983379;28;20139;-68
2021/11/15 09:12:47;;;;;;;8.80;7.57;;;2.50;99.90;;;;;;4980224;28;20077;-64
2021/11/15 09:15:16;;;;;;;9.25;7.07;;;2.60;99.90;;;;;;4986032;28;20408;-66
2021/11/15 09:17:44;;;;;;;9.15;6.90;;;2.60;99.90;;;;;;4982907;28;20084;-68
2021/11/15 09:20:11;;;;;;;9.07;7.43;;;2.70;99.90;;;;;;4981624;28;20034;-63
2021/11/15 09:22:40;;;;;;;10.52;7.60;;;2.80;99.90;;;;;;4981400;28;20132;-69
2021/11/15 09:25:09;;;;;;;11.25;6.97;;;2.90;99.90;;;;;;4981636;28;20049;-66
2021/11/15 09:27:38;;;;;;;11.38;7.32;;;2.90;99.90;;;;;;4981936;28;20443;-64
2021/11/15 09:30:07;;;;;;;12.00;8.07;;;3.00;99.90;;;;;;4981759;28;20591;-69
2021/11/15 09:32:34;;;;;;;12.63;7.18;;;3.10;99.90;;;;;;4981009;28;20120;-68
2021/11/15 09:35:01;;;;;;;10.73;7.57;;;3.10;99.90;;;;;;4982114;28;20133;-64
2021/11/15 09:37:28;;;;;;;23.30;8.02;;;3.20;99.90;;;;;;4982767;28;20384;-64
2021/11/15 09:39:57;;;;;;;10.57;7.32;;;3.30;99.90;;;;;;4982511;28;20077;-64
2021/11/15 09:42:26;;;;;;;12.52;7.90;;;3.50;99.90;;;;;;5012188;28;20046;-64
2021/11/15 09:44:54;;;;;;;10.13;7.00;;;3.60;99.90;;;;;;4981643;28;20397;-65
2021/11/15 09:47:21;;;;;;;12.70;8.48;;;3.60;99.90;;;;;;4983458;28;20069;-63
2021/11/15 09:49:48;;;;;;;10.18;6.90;;;3.70;99.90;;;;;;4983631;28;20197;-64
2021/11/15 09:52:16;;;;;;;10.68;7.53;;;3.70;99.90;;;;;;4982340;28;20100;-64
2021/11/15 09:54:47;;;;;;;12.18;8.48;;;3.80;99.90;;;;;;4984684;28;20081;-64
2021/11/15 09:57:39;;;;;;;8.70;6.57;;;3.90;99.90;;;;;;4985616;28;20412;-63
2021/11/15 10:00:10;;;;;;;8.20;6.90;;;4.00;99.90;;;;;;5011714;28;20061;-64
2021/11/15 10:02:41;;;;;;;8.45;7.10;;;4.00;99.90;;;;;;4982120;28;20053;-66
2021/11/15 10:05:10;;;;;;;8.48;6.35;;;4.00;99.90;;;;;;4977771;28;20150;-63
2021/11/15 10:07:49;;;;;;;16.00;7.75;;;4.10;99.90;;;;;;4981150;28;20126;-68
2021/11/15 10:10:27;;;;;;;6.07;5.40;;;4.20;99.90;;;;;;4976117;28;20082;-63
2021/11/15 10:13:15;;;;;;;11.30;7.07;;;4.30;99.90;;;;;;4973134;28;20077;-64
2021/11/15 10:16:01;;;;;;;6.50;5.88;;;4.30;99.90;;;;;;4996398;28;20054;-64
2021/11/15 10:18:36;;;;;;;6.25;5.65;;;4.40;99.90;;;;;;4980549;28;20069;-65
2021/11/15 10:21:35;;;;;;;8.98;6.15;;;4.40;99.90;;;;;;4979124;28;20113;-64
2021/11/15 10:24:08;;;;;;;6.75;5.75;;;4.50;99.90;;;;;;4985740;28;20113;-66
2021/11/15 10:26:56;;;;;;;8.70;6.07;;;4.50;99.90;;;;;;4975968;28;20121;-70
2021/11/15 10:29:33;;;;;;;6.03;5.30;;;4.60;99.90;;;;;;4974274;28;20068;-63
2021/11/15 10:32:03;;;;;;;8.70;5.10;;;4.70;99.90;;;;;;4978561;28;20046;-70
2021/11/15 10:34:33;;;;;;;8.18;5.10;;;4.70;99.90;;;;;;4982979;28;20092;-63
2021/11/15 10:37:14;;;;;;;6.22;5.15;;;4.70;99.90;;;;;;4985953;28;20124;-63
2021/11/15 10:40:12;;;;;;;6.32;5.68;;;4.80;99.90;;;;;;4983270;28;20042;-64
2021/11/15 10:42:44;;;;;;;5.88;5.28;;;4.80;99.90;;;;;;4975869;28;20057;-65
2021/11/15 10:45:11;;;;;;;4.25;3.83;;;4.90;99.90;;;;;;4984420;28;20113;-64
2021/11/15 10:47:48;;;;;;;5.90;3.72;;;4.90;99.90;;;;;;4981573;28;20070;-67
2021/11/15 10:50:29;;;;;;;4.60;3.92;;;4.90;99.90;;;;;;4982778;28;20043;-64
2021/11/15 10:53:07;;;;;;;8.10;4.82;;;4.90;99.90;;;;;;4981524;28;20476;-64
2021/11/15 10:55:47;;;;;;;5.63;3.80;;;4.90;99.90;;;;;;4983517;28;20073;-67
2021/11/15 10:58:16;;;;;;;4.45;3.55;;;5.00;99.90;;;;;;4984729;28;20085;-64
2021/11/15 11:00:54;;;;;;;5.05;4.30;;;5.00;99.90;;;;;;4979898;28;20081;-64
2021/11/15 11:03:25;;;;;;;5.03;4.43;;;5.10;99.90;;;;;;4985533;28;20072;-64
2021/11/15 11:05:55;;;;;;;4.28;3.72;;;5.10;99.90;;;;;;4984875;28;20069;-63
2021/11/15 11:08:25;;;;;;;4.85;4.35;;;5.10;99.90;;;;;;4983491;28;20429;-64
2021/11/15 11:10:57;;;;;;;4.32;3.47;;;5.10;99.90;;;;;;4984895;28;20065;-63
2021/11/15 11:13:27;;;;;;;6.55;4.35;;;5.10;99.90;;;;;;4983042;28;20085;-65
2021/11/15 11:15:55;;;;;;;4.88;4.05;;;5.10;99.90;;;;;;4986435;28;20141;-65
2021/11/15 11:18:42;;;;;;;5.40;4.18;;;5.20;99.90;;;;;;4982668;28;20058;-65
2021/11/15 11:26:28;;;;;;;4.82;3.60;;;5.20;99.90;;;;;;4981530;28;20473;-63
2021/11/15 11:28:59;;;;;;;6.40;4.43;;;5.30;99.90;;;;;;4983523;28;20043;-66
2021/11/15 11:31:27;;;;;;;3.40;3.10;;;5.20;99.90;;;;;;4983403;28;20132;-66
2021/11/15 11:33:55;;;;;;;4.38;3.72;;;5.30;99.90;;;;;;4987478;28;20554;-65
2021/11/15 11:36:23;;;;;;;6.93;3.70;;;5.30;99.90;;;;;;4982875;28;20070;-63
2021/11/15 11:38:51;;;;;;;5.13;4.63;;;5.30;99.90;;;;;;4983190;28;20066;-64
2021/11/15 11:41:19;;;;;;;4.22;2.90;;;5.30;99.90;;;;;;4981865;28;20062;-69
2021/11/15 11:43:48;;;;;;;4.55;4.15;;;5.40;99.90;;;;;;4999937;28;20073;-68
2021/11/15 11:46:18;;;;;;;6.75;3.55;;;5.30;99.90;;;;;;4982166;28;20053;-68
2021/11/15 11:48:52;;;;;;;4.10;3.40;;;5.30;99.90;;;;;;4997229;28;20073;-66
2021/11/15 11:51:21;;;;;;;4.05;3.65;;;5.30;99.90;;;;;;4982595;28;20061;-64
2021/11/15 11:54:12;;;;;;;6.00;3.37;;;5.30;99.90;;;;;;4984244;28;20038;-63
2021/11/15 11:56:39;;;;;;;5.75;3.88;;;5.30;99.90;;;;;;4983507;28;20122;-66
2021/11/15 11:59:12;;;;;;;5.95;3.83;;;5.30;99.90;;;;;;4981359;28;20047;-66
2021/11/15 12:01:40;;;;;;;2.97;2.72;;;5.30;99.90;;;;;;4983251;28;20808;-67
2021/11/15 12:04:16;;;;;;;4.25;2.90;;;5.30;99.90;;;;;;4984918;28;20060;-74
2021/11/15 12:06:46;;;;;;;2.88;2.42;;;5.30;99.90;;;;;;4983198;28;20073;-66
2021/11/15 12:09:16;;;;;;;14.15;2.75;;;5.40;99.90;;;;;;4986186;28;20046;-73
2021/11/15 12:11:55;;;;;;;4.82;4.13;;;5.40;99.90;;;;;;4982927;28;20074;-65
2021/11/15 12:14:42;;;;;;;5.18;3.25;;;5.40;99.90;;;;;;4979609;28;20054;-64
2021/11/15 12:17:16;;;;;;;3.38;2.72;;;5.40;99.90;;;;;;4981530;28;20067;-73
2021/11/15 12:20:03;;;;;;;5.40;3.20;;;5.40;99.90;;;;;;4982993;28;20046;-65
2021/11/15 12:22:42;;;;;;;3.92;3.28;;;5.40;99.90;;;;;;4976177;28;20126;-69
2021/11/15 12:25:21;;;;;;;4.47;3.08;;;5.50;99.90;;;;;;4978890;28;20144;-65
2021/11/15 12:27:58;;;;;;;3.85;3.00;;;5.50;99.90;;;;;;4974047;28;20046;-64
2021/11/15 12:30:34;;;;;;;3.95;2.83;;;5.50;99.90;;;;;;4981283;28;20050;-63
2021/11/15 12:33:32;;;;;;;3.42;2.58;;;5.50;99.90;;;;;;4983490;28;20385;-63
2021/11/15 12:36:25;;;;;;;4.88;2.63;;;5.40;99.90;;;;;;4978731;28;20057;-63
2021/11/15 12:38:54;;;;;;;3.78;2.97;;;5.50;99.90;;;;;;4982419;28;20038;-74
2021/11/15 12:41:22;;;;;;;4.55;2.72;;;5.50;99.90;;;;;;4976170;28;20112;-65
2021/11/15 12:43:49;;;;;;;3.95;2.90;;;5.40;99.90;;;;;;4978464;28;20207;-68
2021/11/15 12:46:18;;;;;;;5.72;2.25;;;5.40;99.90;;;;;;4977031;28;20088;-68
2021/11/15 12:48:47;;;;;;;5.18;2.95;;;5.40;99.90;;;;;;4986795;28;20433;-64
2021/11/15 12:51:19;;;;;;;5.18;3.17;;;5.40;99.90;;;;;;4983752;28;20058;-72
2021/11/15 12:53:53;;;;;;;3.67;2.75;;;5.40;99.90;;;;;;4982828;28;20049;-63
2021/11/15 12:56:22;;;;;;;6.32;2.80;;;5.40;99.90;;;;;;4983530;28;20046;-64
2021/11/15 12:58:53;;;;;;;4.65;2.75;;;5.40;99.90;;;;;;4985681;28;20137;-68
2021/11/15 13:01:24;;;;;;;3.88;2.88;;;5.40;99.90;;;;;;4978268;28;20102;-66
2021/11/15 13:03:52;;;;;;;5.45;3.13;;;5.40;99.90;;;;;;4982727;28;20070;-64
2021/11/15 13:06:23;;;;;;;4.80;3.75;;;5.40;99.90;;;;;;4978088;28;20051;-71
2021/11/15 13:08:50;;;;;;;3.63;2.70;;;5.30;99.90;;;;;;4981450;28;20587;-63
2021/11/15 13:11:17;;;;;;;3.35;2.42;;;5.30;99.90;;;;;;4983645;28;20177;-66
2021/11/15 13:13:45;;;;;;;3.05;2.85;;;5.30;99.90;;;;;;4983434;28;20046;-64